createdAt,value
2023-01-23T00:01:34.847Z,101320.59
2023-01-23T00:04:02.770Z,101315.72
2023-01-23T00:06:30.596Z,101304.41
2023-01-23T00:08:58.259Z,101300.31
2023-01-23T00:11:27.662Z,101297.91
2023-01-23T00:13:56.937Z,101302.22
2023-01-23T00:16:26.500Z,101285.50
2023-01-23T00:18:56.590Z,101281.16
2023-01-23T00:21:26.437Z,101276.25
2023-01-23T00:23:56.785Z,101273.88
2023-01-23T00:26:27.474Z,101259.78
2023-01-23T00:28:56.240Z,101251.19
2023-01-23T00:31:30.635Z,101255.28
2023-01-23T00:34:01.660Z,101265.00
2023-01-23T00:36:47.642Z,101266.59
2023-01-23T00:39:23.263Z,101269.59
2023-01-23T00:41:50.871Z,101262.31
2023-01-23T00:44:18.422Z,101256.91
2023-01-23T00:46:46.129Z,101257.16
2023-01-23T00:49:13.733Z,101265.81
2023-01-23T00:51:41.117Z,101255.81
2023-01-23T00:54:08.436Z,101261.22
2023-01-23T00:56:36.122Z,101258.25
2023-01-23T00:59:03.910Z,101255.00
2023-01-23T01:01:32.819Z,101252.84
2023-01-23T01:04:00.722Z,101252.03
2023-01-23T01:06:30.060Z,101254.19
2023-01-23T01:08:59.560Z,101253.09
2023-01-23T01:11:27.327Z,101243.63
2023-01-23T01:13:55.096Z,101244.72
2023-01-23T01:16:24.390Z,101239.88
2023-01-23T01:18:51.977Z,101238.22
2023-01-23T01:21:20.268Z,101239.31
2023-01-23T01:23:47.859Z,101241.22
2023-01-23T01:26:15.386Z,101241.78
2023-01-23T01:28:43.081Z,101227.44
2023-01-23T01:31:15.792Z,101231.19
2023-01-23T01:33:44.305Z,101230.66
2023-01-23T01:36:14.584Z,101240.09
2023-01-23T01:38:42.631Z,101232.31
2023-01-23T01:41:12.208Z,101235.81
2023-01-23T01:43:39.655Z,101233.69
2023-01-23T01:46:07.015Z,101243.94
2023-01-23T01:48:47.597Z,101247.97
2023-01-23T01:51:30.142Z,101242.03
2023-01-23T01:54:06.876Z,101239.91
2023-01-23T01:56:41.251Z,101231.81
2023-01-23T01:59:10.082Z,101234.78
2023-01-23T02:01:40.847Z,101226.44
2023-01-23T02:04:09.732Z,101223.19
2023-01-23T02:06:37.388Z,101218.59
2023-01-23T02:09:05.847Z,101222.91
2023-01-23T02:11:34.063Z,101218.06
2023-01-23T02:14:01.765Z,101202.38
2023-01-23T02:16:33.954Z,101201.03
2023-01-23T02:19:09.087Z,101213.13
2023-01-23T02:21:38.065Z,101205.06
2023-01-23T02:24:23.262Z,101191.31
2023-01-23T02:26:52.158Z,101177.81
2023-01-23T02:29:20.528Z,101176.75
2023-01-23T02:31:53.343Z,101171.06
2023-01-23T02:34:22.913Z,101171.84
2023-01-23T02:36:51.408Z,101154.88
2023-01-23T02:39:21.336Z,101154.06
2023-01-23T02:41:54.400Z,101148.44
2023-01-23T02:44:29.058Z,101140.38
2023-01-23T02:47:12.362Z,101141.69
2023-01-23T02:49:42.794Z,101140.91
2023-01-23T02:52:10.892Z,101139.25
2023-01-23T02:54:39.860Z,101132.78
2023-01-23T02:57:07.495Z,101142.25
2023-01-23T02:59:54.099Z,101147.91
2023-01-23T03:02:21.678Z,101138.75
2023-01-23T03:04:49.287Z,101130.38
2023-01-23T03:07:16.736Z,101124.72
2023-01-23T03:09:47.821Z,101129.81
2023-01-23T03:12:15.849Z,101124.16
2023-01-23T03:14:43.241Z,101125.53
2023-01-23T03:17:11.559Z,101117.94
2023-01-23T03:19:39.199Z,101104.13
2023-01-23T03:22:07.236Z,101099.03
2023-01-23T03:24:35.556Z,101102.78
2023-01-23T03:27:03.359Z,101101.66
2023-01-23T03:29:56.306Z,101092.25
2023-01-23T03:32:26.032Z,101089.47
2023-01-23T03:34:55.519Z,101098.66
2023-01-23T03:37:23.755Z,101091.50
2023-01-23T03:40:10.575Z,101084.53
2023-01-23T03:42:38.006Z,101101.06
2023-01-23T03:45:08.010Z,101085.69
2023-01-23T03:47:36.671Z,101085.38
2023-01-23T03:50:04.578Z,101083.47
2023-01-23T03:52:38.085Z,101087.84
2023-01-23T03:55:06.327Z,101066.72
2023-01-23T03:57:34.442Z,101051.84
2023-01-23T04:00:13.733Z,101038.59
2023-01-23T04:02:41.535Z,101037.06
2023-01-23T04:05:11.360Z,101031.06
2023-01-23T04:07:39.588Z,101025.13
2023-01-23T04:10:07.303Z,101011.66
2023-01-23T04:12:35.188Z,101001.16
2023-01-23T04:15:02.506Z,101004.06
2023-01-23T04:17:31.668Z,100983.31
2023-01-23T04:19:59.168Z,100988.75
2023-01-23T04:22:26.865Z,100982.28
2023-01-23T04:24:54.332Z,100999.25
2023-01-23T04:27:21.792Z,100984.03
2023-01-23T04:29:50.695Z,100978.97
2023-01-23T04:32:19.220Z,100970.06
2023-01-23T04:34:47.892Z,100974.59
2023-01-23T04:37:16.296Z,100981.88
2023-01-23T04:39:44.074Z,100982.38
2023-01-23T04:42:11.737Z,100971.00
2023-01-23T04:45:09.987Z,100977.16
2023-01-23T04:48:06.979Z,100986.81
2023-01-23T04:50:36.767Z,100988.75
2023-01-23T04:53:06.242Z,100979.59
2023-01-23T04:55:34.443Z,100972.00
2023-01-23T04:58:04.925Z,100960.59
2023-01-23T05:00:32.563Z,100961.88
2023-01-23T05:03:02.774Z,100998.88
2023-01-23T05:05:31.240Z,100998.53
2023-01-23T05:08:01.125Z,101005.44
2023-01-23T05:10:29.717Z,100982.84
2023-01-23T05:13:00.980Z,100997.75
2023-01-23T05:15:30.660Z,100987.38
2023-01-23T05:17:58.659Z,100988.44
2023-01-23T05:20:26.327Z,100986.22
2023-01-23T05:22:58.409Z,100980.66
2023-01-23T05:25:34.045Z,100988.56
2023-01-23T05:28:02.104Z,100991.03
2023-01-23T05:30:31.180Z,100979.84
2023-01-23T05:33:14.184Z,100981.44
2023-01-23T05:35:41.871Z,100982.53
2023-01-23T05:38:10.435Z,100993.03
2023-01-23T05:40:38.016Z,101000.06
2023-01-23T05:43:25.410Z,100986.34
2023-01-23T05:46:26.603Z,100994.69
2023-01-23T05:48:54.369Z,101007.03
2023-01-23T05:51:23.531Z,101011.38
2023-01-23T05:53:52.159Z,101011.06
2023-01-23T05:56:19.773Z,100999.50
2023-01-23T05:59:13.469Z,101012.72
2023-01-23T06:01:46.859Z,100991.69
2023-01-23T06:04:33.079Z,101006.59
2023-01-23T06:07:14.513Z,100996.09
2023-01-23T06:09:42.659Z,100999.81
2023-01-23T06:12:10.944Z,100993.84
2023-01-23T06:14:39.356Z,100992.16
2023-01-23T06:17:08.045Z,101001.56
2023-01-23T06:19:35.579Z,100991.63
2023-01-23T06:22:03.967Z,100987.06
2023-01-23T06:24:39.006Z,100987.91
2023-01-23T06:27:09.425Z,100980.28
2023-01-23T06:29:38.953Z,100982.69
2023-01-23T06:32:06.735Z,100978.41
2023-01-23T06:34:36.694Z,100982.25
2023-01-23T06:37:06.022Z,100982.28
2023-01-23T06:39:34.341Z,100981.75
2023-01-23T06:42:03.455Z,100988.19
2023-01-23T06:44:37.855Z,100979.84
2023-01-23T06:47:06.196Z,100980.78
2023-01-23T06:49:34.102Z,100994.06
2023-01-23T06:52:01.866Z,100986.50
2023-01-23T06:54:29.901Z,100985.25
2023-01-23T06:57:01.812Z,100980.66
2023-01-23T06:59:29.920Z,100981.63
2023-01-23T07:01:59.555Z,100975.72
2023-01-23T07:04:38.196Z,100977.09
2023-01-23T07:07:05.760Z,100966.34
2023-01-23T07:09:34.412Z,100967.91
2023-01-23T07:12:10.031Z,100966.84
2023-01-23T07:14:37.618Z,100963.22
2023-01-23T07:17:05.252Z,100971.53
2023-01-23T07:19:32.727Z,100952.09
2023-01-23T07:22:01.586Z,100959.09
2023-01-23T07:24:31.757Z,100962.34
2023-01-23T07:26:59.301Z,100954.00
2023-01-23T07:29:27.096Z,100960.75
2023-01-23T07:31:54.723Z,100955.56
2023-01-23T07:34:22.219Z,100961.50
2023-01-23T07:36:49.757Z,100944.25
2023-01-23T07:39:17.299Z,100958.81
2023-01-23T07:41:46.385Z,100955.59
2023-01-23T07:44:17.610Z,100966.09
2023-01-23T07:46:45.966Z,100973.66
2023-01-23T07:49:14.034Z,100965.59
2023-01-23T07:51:41.766Z,100974.84
2023-01-23T07:54:09.725Z,100974.84
2023-01-23T07:56:37.531Z,100986.03
2023-01-23T07:59:05.242Z,100969.34
2023-01-23T08:01:32.808Z,100990.97
2023-01-23T08:04:00.393Z,100992.81
2023-01-23T08:06:27.928Z,100988.94
2023-01-23T08:08:55.399Z,100998.41
2023-01-23T08:11:24.129Z,100992.97
2023-01-23T08:13:51.646Z,101005.41
2023-01-23T08:16:19.447Z,100997.66
2023-01-23T08:18:47.252Z,100987.69
2023-01-23T08:21:14.769Z,100993.91
2023-01-23T08:23:42.348Z,100999.59
2023-01-23T08:26:14.585Z,100998.81
2023-01-23T08:28:43.565Z,101007.44
2023-01-23T08:31:12.519Z,101010.13
2023-01-23T08:33:41.478Z,101004.25
2023-01-23T08:36:12.386Z,101018.22
2023-01-23T08:38:39.964Z,101016.34
2023-01-23T08:41:10.019Z,101017.94
2023-01-23T08:43:37.849Z,101021.16
2023-01-23T08:46:05.470Z,101018.69
2023-01-23T08:48:34.280Z,101027.59
2023-01-23T08:51:04.820Z,101022.00
2023-01-23T08:53:33.531Z,101038.69
2023-01-23T08:56:02.899Z,101031.13
2023-01-23T08:58:30.531Z,101037.06
2023-01-23T09:00:58.469Z,101037.84
2023-01-23T09:03:26.769Z,101044.22
2023-01-23T09:05:54.305Z,101054.19
2023-01-23T09:08:21.865Z,101048.75
2023-01-23T09:10:49.374Z,101055.72
2023-01-23T09:13:17.341Z,101055.06
2023-01-23T09:15:44.820Z,101066.00
2023-01-23T09:18:12.361Z,101053.44
2023-01-23T09:20:39.906Z,101050.91
2023-01-23T09:23:07.563Z,101054.69
2023-01-23T09:25:35.128Z,101060.59
2023-01-23T09:28:02.683Z,101066.28
2023-01-23T09:30:30.199Z,101064.16
2023-01-23T09:32:57.754Z,101049.34
2023-01-23T09:35:25.264Z,101052.88
2023-01-23T09:38:01.684Z,101071.75
2023-01-23T09:40:36.915Z,101056.16
2023-01-23T09:43:16.296Z,101066.94
2023-01-23T09:45:53.557Z,101056.31
2023-01-23T09:48:39.732Z,101062.50
2023-01-23T09:51:18.403Z,101077.72
2023-01-23T09:53:46.575Z,101086.56
2023-01-23T09:56:23.308Z,101090.34
2023-01-23T09:59:02.455Z,101086.53
2023-01-23T10:01:31.793Z,101081.97
2023-01-23T10:04:00.850Z,101077.41
2023-01-23T10:06:31.288Z,101084.94
2023-01-23T10:09:30.643Z,101080.59
2023-01-23T10:12:15.763Z,101084.88
2023-01-23T10:15:10.588Z,101084.72
2023-01-23T10:17:48.778Z,101078.78
2023-01-23T10:20:41.090Z,101085.47
2023-01-23T10:23:11.839Z,101088.47
2023-01-23T10:25:41.190Z,101086.56
2023-01-23T10:28:22.273Z,101090.34
2023-01-23T10:30:56.488Z,101066.91
2023-01-23T10:33:37.768Z,101081.69
2023-01-23T10:36:23.874Z,101081.09
2023-01-23T10:39:02.831Z,101083.59
2023-01-23T10:41:30.537Z,101071.69
2023-01-23T10:43:59.043Z,101064.53
2023-01-23T10:46:42.533Z,101061.81
2023-01-23T10:49:10.026Z,101061.34
2023-01-23T10:51:37.439Z,101069.63
2023-01-23T10:54:29.651Z,101057.97
2023-01-23T10:57:04.732Z,101057.47
2023-01-23T10:59:34.912Z,101068.78
2023-01-23T11:02:04.787Z,101067.19
2023-01-23T11:04:37.041Z,101055.28
2023-01-23T11:07:18.255Z,101049.00
2023-01-23T11:09:58.292Z,101049.75
2023-01-23T11:12:31.856Z,101048.97
2023-01-23T11:15:31.477Z,101050.06
2023-01-23T11:18:01.004Z,101055.34
2023-01-23T11:20:36.400Z,101051.00
2023-01-23T11:23:05.572Z,101052.84
2023-01-23T11:25:37.673Z,101043.56
2023-01-23T11:28:34.917Z,101055.19
2023-01-23T11:31:15.180Z,101045.97
2023-01-23T11:33:55.397Z,101032.25
2023-01-23T11:37:10.474Z,101030.84
2023-01-23T11:39:58.366Z,101008.41
2023-01-23T11:42:28.697Z,100996.03
2023-01-23T11:44:59.505Z,100966.63
2023-01-23T11:47:39.677Z,100976.13
2023-01-23T11:50:15.971Z,100995.06
2023-01-23T11:53:05.532Z,101024.13
2023-01-23T11:55:51.720Z,101046.25
2023-01-23T11:58:49.050Z,101048.38
2023-01-23T12:01:32.921Z,101034.38
2023-01-23T12:04:28.405Z,101036.72
2023-01-23T12:07:11.006Z,101022.81
2023-01-23T12:09:59.756Z,101023.63
2023-01-23T12:12:45.515Z,101023.84
2023-01-23T12:15:37.843Z,101038.84
2023-01-23T12:18:05.207Z,101047.59
2023-01-23T12:20:52.893Z,101035.00
2023-01-23T12:23:42.759Z,101032.28
2023-01-23T12:26:24.744Z,101038.94
2023-01-23T12:29:24.557Z,101040.38
2023-01-23T12:32:06.567Z,101024.44
2023-01-23T12:34:45.205Z,101034.53
2023-01-23T12:37:31.177Z,101029.38
2023-01-23T12:40:13.081Z,101018.69
2023-01-23T12:42:43.557Z,101017.72
2023-01-23T12:45:10.957Z,101017.13
2023-01-23T12:47:43.477Z,101015.81
2023-01-23T12:50:36.841Z,100993.28
2023-01-23T12:53:12.731Z,101000.53
2023-01-23T12:55:59.781Z,100993.16
2023-01-23T12:58:30.495Z,100998.97
2023-01-23T13:01:01.639Z,101003.88
2023-01-23T13:03:56.487Z,101021.19
2023-01-23T13:06:42.838Z,101007.50
2023-01-23T13:09:35.587Z,101012.13
2023-01-23T13:12:11.798Z,101023.59
2023-01-23T13:15:06.457Z,101013.75
2023-01-23T13:17:37.347Z,101019.34
2023-01-23T13:20:42.254Z,101040.56
2023-01-23T13:23:32.650Z,101029.31
2023-01-23T13:26:15.380Z,101033.44
2023-01-23T13:28:53.933Z,101025.09
2023-01-23T13:31:33.973Z,101040.47
2023-01-23T13:34:14.872Z,101027.41
2023-01-23T13:36:50.590Z,101026.63
2023-01-23T13:39:18.026Z,101042.91
2023-01-23T13:42:06.788Z,101034.97
2023-01-23T13:44:41.772Z,101047.91
2023-01-23T14:22:37.084Z,101122.53
2023-01-23T14:25:16.544Z,101092.16
2023-01-23T14:27:52.633Z,101124.47
2023-01-23T14:30:30.367Z,101102.63
2023-01-23T14:32:59.313Z,101126.16
2023-01-23T14:35:32.756Z,101127.38
2023-01-23T14:38:05.200Z,101133.03
2023-01-23T14:40:48.934Z,101119.34
2023-01-23T14:43:22.035Z,101139.63
2023-01-23T14:45:57.276Z,101156.84
2023-01-23T14:48:24.975Z,101150.41
2023-01-23T14:51:21.419Z,101150.88
2023-01-23T14:53:58.053Z,101144.16
2023-01-23T14:56:29.951Z,101147.78
2023-01-23T14:59:00.810Z,101158.63
2023-01-23T15:01:34.106Z,101185.59
2023-01-23T15:04:19.857Z,101174.13
2023-01-23T15:06:53.677Z,101194.41
2023-01-23T15:09:29.361Z,101178.31
2023-01-23T15:12:08.546Z,101186.97
2023-01-23T15:14:40.264Z,101191.97
2023-01-23T15:17:15.490Z,101191.75
2023-01-23T15:19:43.666Z,101184.44
2023-01-23T15:22:21.995Z,101208.34
2023-01-23T15:24:49.459Z,101213.94
2023-01-23T15:27:27.881Z,101205.03
2023-01-23T15:30:33.585Z,101202.50
2023-01-23T15:33:07.197Z,101200.63
2023-01-23T15:35:37.146Z,101233.72
2023-01-23T15:38:08.673Z,101223.06
2023-01-23T15:40:38.708Z,101231.50
2023-01-23T15:43:11.725Z,101248.59
2023-01-23T15:45:39.128Z,101232.38
2023-01-23T15:48:06.851Z,101249.94
2023-01-23T15:50:34.475Z,101242.47
2023-01-23T15:53:02.243Z,101248.56
2023-01-23T15:55:29.803Z,101257.28
2023-01-23T15:57:57.326Z,101265.06
2023-01-23T16:00:27.166Z,101262.63
2023-01-23T16:02:57.802Z,101275.31
2023-01-23T16:05:28.730Z,101265.22
2023-01-23T16:07:57.862Z,101273.72
2023-01-23T16:10:29.235Z,101272.31
2023-01-23T16:12:58.128Z,101278.84
2023-01-23T16:15:32.983Z,101266.38
2023-01-23T16:18:03.015Z,101291.53
2023-01-23T16:20:34.735Z,101288.06
2023-01-23T16:23:24.887Z,101280.97
2023-01-23T16:25:53.419Z,101285.66
2023-01-23T16:28:23.846Z,101288.97
2023-01-23T16:30:52.425Z,101300.84
2023-01-23T16:33:20.509Z,101295.34
2023-01-23T16:35:50.874Z,101320.22
2023-01-23T16:38:22.755Z,101317.59
2023-01-23T16:40:53.139Z,101318.59
2023-01-23T16:43:22.173Z,101331.06
2023-01-23T16:45:49.704Z,101333.03
2023-01-23T16:48:26.286Z,101327.41
2023-01-23T16:51:02.443Z,101337.06
2023-01-23T16:53:37.259Z,101342.06
2023-01-23T16:56:06.059Z,101340.97
2023-01-23T16:58:39.532Z,101342.88
2023-01-23T17:01:15.537Z,101366.94
2023-01-23T17:03:44.697Z,101345.28
2023-01-23T17:06:16.567Z,101367.44
2023-01-23T17:08:44.169Z,101353.72
2023-01-23T17:11:20.393Z,101359.09
2023-01-23T17:13:50.500Z,101385.34
2023-01-23T17:16:26.995Z,101384.25
2023-01-23T17:18:57.212Z,101388.88
2023-01-23T17:21:34.737Z,101392.38
2023-01-23T17:24:02.266Z,101394.00
2023-01-23T17:26:29.775Z,101421.13
2023-01-23T17:28:57.621Z,101403.38
2023-01-23T17:31:28.568Z,101399.84
2023-01-23T17:33:56.261Z,101416.00
2023-01-23T17:36:26.318Z,101422.38
2023-01-23T17:38:55.977Z,101428.06
2023-01-23T17:41:23.631Z,101434.28
2023-01-23T17:43:52.782Z,101431.91
2023-01-23T17:46:24.167Z,101425.38
2023-01-23T17:48:51.890Z,101428.66
2023-01-23T17:51:20.864Z,101417.72
2023-01-23T17:53:49.215Z,101415.00
2023-01-23T17:56:16.879Z,101423.59
2023-01-23T17:58:44.758Z,101431.28
2023-01-23T18:01:19.409Z,101444.72
2023-01-23T18:03:46.908Z,101442.81
2023-01-23T18:06:14.388Z,101443.66
2023-01-23T18:08:42.468Z,101435.53
2023-01-23T18:11:33.219Z,101438.13
2023-01-23T18:14:35.064Z,101427.56
2023-01-23T18:17:02.815Z,101458.69
2023-01-23T18:19:30.471Z,101451.88
2023-01-23T18:21:58.212Z,101456.56
2023-01-23T18:24:33.002Z,101477.97
2023-01-23T18:27:06.525Z,101459.81
2023-01-23T18:29:34.008Z,101481.78
2023-01-23T18:32:37.221Z,101492.34
2023-01-23T18:35:23.279Z,101511.22
2023-01-23T18:38:06.343Z,101527.78
2023-01-23T18:40:57.163Z,101513.41
2023-01-23T18:43:47.242Z,101538.03
2023-01-23T18:46:17.536Z,101541.06
2023-01-23T18:48:46.584Z,101543.34
2023-01-23T18:51:19.994Z,101560.00
2023-01-23T18:54:08.469Z,101567.22
2023-01-23T18:56:51.246Z,101567.28
2023-01-23T18:59:33.885Z,101606.81
2023-01-23T19:02:21.924Z,101599.41
2023-01-23T19:05:19.376Z,101600.38
2023-01-23T19:07:48.393Z,101581.59
2023-01-23T19:10:18.531Z,101598.75
2023-01-23T19:13:36.842Z,101585.69
2023-01-23T19:16:10.954Z,101583.06
2023-01-23T19:18:53.262Z,101579.78
2023-01-23T19:21:26.784Z,101592.16
2023-01-23T19:23:58.742Z,101577.25
2023-01-23T19:26:29.649Z,101577.75
2023-01-23T19:28:59.705Z,101569.34
2023-01-23T19:31:28.849Z,101573.34
2023-01-23T19:33:57.058Z,101573.31
2023-01-23T19:36:25.755Z,101572.75
2023-01-23T19:39:00.470Z,101573.56
2023-01-23T19:41:42.074Z,101572.91
2023-01-23T19:44:14.731Z,101563.81
2023-01-23T19:46:42.962Z,101566.13
2023-01-23T19:49:11.532Z,101569.38
2023-01-23T19:51:40.316Z,101579.66
2023-01-23T19:54:09.524Z,101590.97
2023-01-23T19:56:38.937Z,101591.28
2023-01-23T19:59:07.772Z,101611.53
2023-01-23T20:01:43.553Z,101629.03
2023-01-23T20:04:16.861Z,101646.41
2023-01-23T20:06:49.678Z,101641.34
2023-01-23T20:09:18.036Z,101646.00
2023-01-23T20:11:47.035Z,101660.28
2023-01-23T20:14:15.262Z,101655.13
2023-01-23T20:16:43.462Z,101663.03
2023-01-23T20:19:14.414Z,101673.25
2023-01-23T20:21:42.136Z,101663.34
2023-01-23T20:24:09.840Z,101678.78
2023-01-23T20:26:37.920Z,101686.19
2023-01-23T20:29:07.392Z,101691.16
2023-01-23T20:31:35.906Z,101694.75
2023-01-23T20:34:04.711Z,101689.91
2023-01-23T20:36:33.114Z,101703.75
2023-01-23T20:39:00.769Z,101709.72
2023-01-23T20:41:28.288Z,101708.94
2023-01-23T20:43:55.895Z,101713.25
2023-01-23T20:46:24.154Z,101707.59
2023-01-23T20:48:51.877Z,101709.00
2023-01-23T20:51:19.635Z,101711.69
2023-01-23T20:53:47.458Z,101725.78
2023-01-23T20:56:18.459Z,101729.81
2023-01-23T20:59:07.444Z,101731.69
2023-01-23T21:01:55.632Z,101741.22
2023-01-23T21:04:25.005Z,101749.84
2023-01-23T21:06:53.040Z,101753.06
2023-01-23T21:09:20.640Z,101751.50
2023-01-23T21:11:50.042Z,101765.50
2023-01-23T21:14:18.255Z,101778.63
2023-01-23T21:16:46.335Z,101781.06
2023-01-23T21:19:14.836Z,101791.88
2023-01-23T21:21:42.640Z,101787.88
2023-01-23T21:24:10.441Z,101789.72
2023-01-23T21:26:38.635Z,101789.44
2023-01-23T21:29:07.147Z,101781.63
2023-01-23T21:31:37.350Z,101793.81
2023-01-23T21:34:10.517Z,101793.56
2023-01-23T21:36:39.329Z,101782.22
2023-01-23T21:39:09.411Z,101793.09
2023-01-23T21:41:37.891Z,101793.13
2023-01-23T21:44:05.441Z,101797.19
2023-01-23T21:46:33.069Z,101804.44
2023-01-23T21:49:00.625Z,101797.72
2023-01-23T21:51:28.439Z,101826.44
2023-01-23T21:53:56.052Z,101828.59
2023-01-23T21:56:24.277Z,101827.53
2023-01-23T21:58:51.810Z,101819.41
2023-01-23T22:01:37.737Z,101823.47
2023-01-23T22:04:11.840Z,101832.41
2023-01-23T22:06:41.672Z,101842.16
2023-01-23T22:09:13.008Z,101836.50
2023-01-23T22:11:40.550Z,101846.81
2023-01-23T22:14:08.050Z,101860.34
2023-01-23T22:16:48.021Z,101863.06
2023-01-23T22:19:19.609Z,101871.44
2023-01-23T22:21:47.139Z,101872.50
2023-01-23T22:24:14.991Z,101869.28
2023-01-23T22:26:43.292Z,101877.91
2023-01-23T22:29:12.962Z,101864.38
2023-01-23T22:31:40.718Z,101870.84
2023-01-23T22:34:08.719Z,101869.25
2023-01-23T22:36:36.454Z,101870.63
2023-01-23T22:39:04.304Z,101874.97
2023-01-23T22:41:32.547Z,101879.59
2023-01-23T22:44:00.054Z,101886.91
2023-01-23T22:46:28.505Z,101894.22
2023-01-23T22:48:56.037Z,101896.66
2023-01-23T22:51:26.623Z,101891.53
2023-01-23T22:53:55.832Z,101908.56
2023-01-23T22:56:24.271Z,101908.88
2023-01-23T22:58:53.577Z,101904.56
2023-01-23T23:01:24.636Z,101911.59
2023-01-23T23:03:52.220Z,101914.31
2023-01-23T23:06:20.363Z,101912.13
2023-01-23T23:08:48.625Z,101901.84
2023-01-23T23:11:19.641Z,101916.22
2023-01-23T23:13:47.749Z,101920.84
2023-01-23T23:16:18.505Z,101923.81
2023-01-23T23:18:47.935Z,101920.28
2023-01-23T23:21:18.160Z,101920.03
2023-01-23T23:23:46.353Z,101928.69
2023-01-23T23:26:14.134Z,101926.53
2023-01-23T23:28:42.417Z,101922.75
2023-01-23T23:31:10.648Z,101930.88
2023-01-23T23:33:38.376Z,101933.84
2023-01-23T23:36:06.871Z,101926.28
2023-01-23T23:38:34.670Z,101921.66
2023-01-23T23:41:04.738Z,101924.63
2023-01-23T23:43:32.663Z,101923.81
2023-01-23T23:46:03.904Z,101919.22
2023-01-23T23:48:33.235Z,101913.25
2023-01-23T23:51:05.908Z,101903.50
2023-01-23T23:53:34.053Z,101902.94
2023-01-23T23:56:01.620Z,101917.53
2023-01-23T23:58:29.315Z,101924.59
